createdAt,value
2019-03-09T00:01:16.168Z,4.13
2019-03-09T00:03:43.143Z,3.80
2019-03-09T00:06:10.125Z,4.33
2019-03-09T00:08:37.076Z,4.20
2019-03-09T00:11:04.026Z,4.27
2019-03-09T00:13:30.990Z,3.73
2019-03-09T00:15:57.954Z,4.00
2019-03-09T00:18:25.056Z,3.80
2019-03-09T00:20:51.960Z,4.30
2019-03-09T00:23:24.536Z,3.87
2019-03-09T00:25:57.175Z,4.30
2019-03-09T00:28:28.865Z,3.90
2019-03-09T00:31:04.453Z,4.00
2019-03-09T00:33:31.448Z,4.40
2019-03-09T00:35:58.407Z,3.97
2019-03-09T00:38:25.343Z,3.80
2019-03-09T00:40:52.295Z,3.90
2019-03-09T00:43:19.237Z,4.10
2019-03-09T00:45:46.188Z,4.00
2019-03-09T00:48:13.254Z,4.40
2019-03-09T00:50:40.204Z,3.70
2019-03-09T00:53:07.171Z,4.73
2019-03-09T00:55:34.124Z,3.70
2019-03-09T00:58:01.058Z,4.00
2019-03-09T01:00:28.070Z,4.30
2019-03-09T01:02:55.234Z,4.30
2019-03-09T01:05:22.200Z,4.57
2019-03-09T01:07:49.194Z,4.90
2019-03-09T01:10:16.253Z,5.80
2019-03-09T01:12:43.345Z,5.17
2019-03-09T01:15:10.317Z,5.17
2019-03-09T01:17:37.311Z,5.13
2019-03-09T01:20:04.481Z,5.03
2019-03-09T01:22:31.426Z,5.20
2019-03-09T01:24:58.363Z,5.07
2019-03-09T01:27:25.321Z,4.97
2019-03-09T01:29:52.326Z,4.10
2019-03-09T01:32:19.282Z,5.17
2019-03-09T01:34:46.259Z,4.77
2019-03-09T01:37:13.244Z,4.57
2019-03-09T01:39:40.193Z,4.07
2019-03-09T01:42:07.160Z,4.97
2019-03-09T01:44:34.127Z,5.63
2019-03-09T01:47:01.143Z,4.63
2019-03-09T01:49:28.088Z,5.27
2019-03-09T01:51:55.098Z,4.83
2019-03-09T01:54:22.265Z,4.90
2019-03-09T01:56:49.241Z,4.23
2019-03-09T01:59:16.204Z,4.70
2019-03-09T02:01:43.153Z,5.07
2019-03-09T02:04:10.095Z,4.90
2019-03-09T02:06:37.046Z,4.93
2019-03-09T02:09:04.975Z,4.30
2019-03-09T02:11:31.931Z,4.70
2019-03-09T02:13:58.847Z,8.37
2019-03-09T02:16:25.818Z,6.77
2019-03-09T02:18:52.772Z,5.17
2019-03-09T02:21:19.740Z,4.63
2019-03-09T02:23:46.672Z,4.67
2019-03-09T02:26:13.570Z,5.33
2019-03-09T02:28:40.594Z,5.77
2019-03-09T02:31:07.579Z,6.13
2019-03-09T02:33:34.555Z,5.20
2019-03-09T02:36:01.513Z,4.70
2019-03-09T02:39:37.176Z,4.30
2019-03-09T02:42:04.122Z,4.80
2019-03-09T02:44:31.113Z,5.13
2019-03-09T02:46:58.106Z,5.00
2019-03-09T02:49:25.047Z,5.17
2019-03-09T02:51:51.968Z,4.77
2019-03-09T02:54:18.911Z,4.73
2019-03-09T02:56:45.850Z,5.73
2019-03-09T02:59:12.807Z,4.80
2019-03-09T03:01:46.308Z,5.17
2019-03-09T03:04:13.358Z,4.90
2019-03-09T03:06:40.308Z,5.00
2019-03-09T03:09:07.347Z,5.13
2019-03-09T03:11:34.314Z,5.10
2019-03-09T03:14:01.326Z,5.10
2019-03-09T03:16:28.582Z,6.23
2019-03-09T03:18:55.548Z,5.23
2019-03-09T03:21:22.479Z,5.30
2019-03-09T03:23:49.488Z,5.67
2019-03-09T03:26:16.468Z,5.70
2019-03-09T03:28:43.457Z,4.70
2019-03-09T03:31:10.479Z,4.97
2019-03-09T03:33:37.467Z,5.17
2019-03-09T03:36:04.448Z,5.53
2019-03-09T03:38:31.399Z,5.17
2019-03-09T03:40:58.363Z,5.10
2019-03-09T03:43:25.345Z,6.20
2019-03-09T03:45:52.258Z,5.77
2019-03-09T03:48:19.202Z,6.77
2019-03-09T03:50:46.143Z,5.93
2019-03-09T03:53:13.069Z,5.07
2019-03-09T03:55:40.011Z,5.77
2019-03-09T03:58:06.998Z,5.70
2019-03-09T04:00:34.597Z,5.27
2019-03-09T04:03:01.594Z,5.60
2019-03-09T04:05:28.520Z,4.47
2019-03-09T04:07:55.502Z,4.30
2019-03-09T04:10:22.457Z,4.50
2019-03-09T04:12:49.421Z,4.47
2019-03-09T04:15:16.387Z,4.23
2019-03-09T04:17:43.326Z,4.60
2019-03-09T04:20:10.332Z,5.10
2019-03-09T04:22:37.269Z,4.80
2019-03-09T04:25:04.318Z,4.23
2019-03-09T04:27:31.260Z,4.50
2019-03-09T04:29:58.182Z,4.60
2019-03-09T04:32:25.138Z,5.30
2019-03-09T04:34:52.106Z,4.33
2019-03-09T04:37:19.009Z,4.17
2019-03-09T04:39:45.938Z,4.63
2019-03-09T04:42:13.596Z,4.90
2019-03-09T04:44:40.538Z,4.23
2019-03-09T04:47:07.450Z,4.63
2019-03-09T04:49:34.467Z,5.93
2019-03-09T04:52:01.432Z,5.40
2019-03-09T04:54:28.414Z,4.97
2019-03-09T04:56:55.366Z,5.03
2019-03-09T04:59:22.311Z,4.37
2019-03-09T05:01:49.230Z,4.53
2019-03-09T05:04:27.689Z,4.57
2019-03-09T05:06:54.592Z,4.10
2019-03-09T05:09:31.401Z,3.97
2019-03-09T05:11:58.343Z,4.50
2019-03-09T05:14:25.665Z,4.30
2019-03-09T05:16:52.580Z,4.57
2019-03-09T05:19:19.529Z,4.57
2019-03-09T05:21:46.523Z,4.40
2019-03-09T05:24:13.453Z,4.50
2019-03-09T05:26:40.408Z,4.70
2019-03-09T05:29:07.340Z,4.83
2019-03-09T05:31:34.272Z,4.13
2019-03-09T05:34:01.208Z,4.53
2019-03-09T05:36:28.156Z,4.13
2019-03-09T05:43:49.872Z,4.90
2019-03-09T05:46:16.882Z,4.23
2019-03-09T05:48:43.823Z,5.30
2019-03-09T05:51:10.774Z,4.07
2019-03-09T05:53:37.743Z,4.20
2019-03-09T05:56:04.677Z,4.23
2019-03-09T05:58:31.626Z,5.10
2019-03-09T06:00:58.635Z,4.90
2019-03-09T06:03:25.563Z,4.37
2019-03-09T06:05:56.355Z,5.20
2019-03-09T06:08:23.297Z,4.57
2019-03-09T06:10:50.522Z,5.37
2019-03-09T06:13:17.519Z,6.27
2019-03-09T06:15:44.456Z,4.83
2019-03-09T06:18:11.387Z,4.83
2019-03-09T06:20:38.318Z,5.60
2019-03-09T06:23:05.260Z,5.00
2019-03-09T06:25:32.249Z,4.70
2019-03-09T06:27:59.251Z,4.73
2019-03-09T06:30:26.180Z,4.83
2019-03-09T06:33:04.899Z,6.13
2019-03-09T06:35:31.810Z,4.87
2019-03-09T06:38:08.851Z,4.33
2019-03-09T06:40:35.793Z,5.47
2019-03-09T06:43:02.825Z,5.90
2019-03-09T06:45:29.793Z,4.93
2019-03-09T06:47:56.779Z,5.90
2019-03-09T06:50:23.798Z,4.80
2019-03-09T06:52:50.775Z,5.53
2019-03-09T06:55:17.739Z,5.27
2019-03-09T06:57:44.686Z,5.40
2019-03-09T07:00:24.012Z,5.40
2019-03-09T07:02:50.944Z,9.47
2019-03-09T07:05:17.906Z,7.53
2019-03-09T07:07:45.378Z,6.10
2019-03-09T07:10:12.318Z,5.23
2019-03-09T07:12:39.277Z,5.13
2019-03-09T07:15:19.203Z,4.77
2019-03-09T07:17:47.045Z,5.40
2019-03-09T07:20:14.433Z,9.80
2019-03-09T07:22:41.405Z,6.60
2019-03-09T07:25:08.913Z,5.93
2019-03-09T07:27:35.865Z,5.30
2019-03-09T07:30:05.469Z,4.83
2019-03-09T07:32:32.438Z,5.10
2019-03-09T07:34:59.413Z,4.50
2019-03-09T07:37:26.365Z,5.30
2019-03-09T07:39:53.365Z,4.73
2019-03-09T07:42:20.281Z,4.57
2019-03-09T07:44:48.083Z,3.87
2019-03-09T07:47:15.048Z,4.17
2019-03-09T07:49:42.438Z,3.97
2019-03-09T07:52:20.887Z,4.20
2019-03-09T07:54:47.840Z,3.67
2019-03-09T07:57:15.340Z,4.63
2019-03-09T07:59:42.364Z,3.93
2019-03-09T08:02:09.387Z,4.47
2019-03-09T08:04:38.103Z,3.47
2019-03-09T08:07:05.122Z,2.60
2019-03-09T08:09:32.145Z,3.47
2019-03-09T08:11:59.094Z,3.73
2019-03-09T08:14:26.079Z,3.53
2019-03-09T08:16:53.027Z,3.10
2019-03-09T08:19:19.973Z,3.57
2019-03-09T08:21:46.987Z,2.70
2019-03-09T08:24:20.642Z,3.53
2019-03-09T08:26:47.582Z,3.60
2019-03-09T08:29:14.564Z,5.10
2019-03-09T08:31:41.553Z,2.83
2019-03-09T08:34:08.564Z,2.90
2019-03-09T08:36:35.533Z,2.30
2019-03-09T08:39:03.236Z,2.90
2019-03-09T08:41:31.071Z,2.90
2019-03-09T08:43:59.017Z,3.60
2019-03-09T08:46:26.012Z,3.33
2019-03-09T08:48:52.986Z,2.50
2019-03-09T08:51:19.929Z,2.67
2019-03-09T08:53:47.609Z,2.93
2019-03-09T08:56:14.636Z,2.73
2019-03-09T08:58:41.582Z,3.03
2019-03-09T09:01:08.533Z,3.40
2019-03-09T09:03:35.499Z,2.40
2019-03-09T09:06:02.547Z,3.07
2019-03-09T09:08:29.582Z,2.33
2019-03-09T09:10:56.694Z,2.50
2019-03-09T09:13:23.678Z,2.60
2019-03-09T09:15:51.471Z,4.83
2019-03-09T09:18:18.540Z,3.03
2019-03-09T09:20:45.454Z,2.63
2019-03-09T09:23:12.452Z,2.73
2019-03-09T09:25:39.475Z,4.53
2019-03-09T09:28:06.478Z,2.57
2019-03-09T09:30:33.476Z,2.47
2019-03-09T09:33:00.507Z,2.33
2019-03-09T09:35:27.524Z,3.80
2019-03-09T09:37:54.496Z,2.67
2019-03-09T09:40:21.838Z,2.80
2019-03-09T09:42:48.864Z,3.30
2019-03-09T09:45:15.847Z,3.10
2019-03-09T09:47:42.852Z,2.97
2019-03-09T09:50:10.719Z,2.60
2019-03-09T09:52:37.684Z,3.33
2019-03-09T09:55:06.732Z,3.23
2019-03-09T09:57:33.662Z,3.80
2019-03-09T10:00:00.600Z,3.87
2019-03-09T10:02:27.613Z,3.17
2019-03-09T10:04:57.274Z,4.50
2019-03-09T10:07:24.463Z,3.40
2019-03-09T10:09:51.561Z,2.70
2019-03-09T10:12:18.758Z,3.50
2019-03-09T10:14:46.476Z,2.30
2019-03-09T10:17:14.115Z,3.73
2019-03-09T10:19:41.118Z,2.63
2019-03-09T10:22:08.698Z,2.80
2019-03-09T10:24:36.542Z,2.63
2019-03-09T10:27:03.772Z,2.97
2019-03-09T10:29:30.781Z,2.77
2019-03-09T10:31:58.237Z,2.77
2019-03-09T10:34:25.921Z,3.03
2019-03-09T10:36:52.868Z,2.93
2019-03-09T10:39:19.839Z,3.47
2019-03-09T10:41:47.453Z,2.97
2019-03-09T10:44:14.577Z,4.33
2019-03-09T10:46:42.233Z,3.53
2019-03-09T10:49:10.160Z,2.63
2019-03-09T10:56:36.041Z,3.13
2019-03-09T10:59:03.386Z,3.60
2019-03-09T11:01:31.376Z,3.27
2019-03-09T11:03:58.530Z,3.43
2019-03-09T11:06:25.471Z,3.30
2019-03-09T11:08:53.074Z,2.93
2019-03-09T11:11:21.285Z,3.17
2019-03-09T11:13:52.114Z,4.27
2019-03-09T11:16:16.134Z,4.27
2019-03-09T11:18:43.091Z,3.87
2019-03-09T11:21:10.085Z,4.27
2019-03-09T11:23:37.144Z,3.60
2019-03-09T11:26:04.357Z,2.83
2019-03-09T11:28:31.321Z,3.43
2019-03-09T11:30:58.306Z,2.97
2019-03-09T11:33:25.297Z,3.00
2019-03-09T11:35:52.218Z,3.07
2019-03-09T11:43:13.961Z,4.07
2019-03-09T11:45:40.962Z,4.40
2019-03-09T11:48:08.007Z,7.33
2019-03-09T11:50:34.966Z,3.87
2019-03-09T11:53:02.120Z,3.00
2019-03-09T11:55:29.084Z,2.60
2019-03-09T11:57:56.102Z,2.30
2019-03-09T12:00:26.212Z,2.27
2019-03-09T12:02:53.188Z,2.97
2019-03-09T12:05:20.238Z,3.53
2019-03-09T12:07:47.277Z,3.77
2019-03-09T12:10:14.220Z,2.87
2019-03-09T12:12:41.284Z,2.43
2019-03-09T12:15:08.339Z,3.03
2019-03-09T12:17:35.325Z,3.07
2019-03-09T12:20:02.443Z,2.70
2019-03-09T12:22:29.415Z,2.60
2019-03-09T12:24:56.414Z,3.77
2019-03-09T12:27:23.395Z,2.97
2019-03-09T12:29:50.339Z,2.63
2019-03-09T12:32:17.345Z,2.90
2019-03-09T12:34:44.293Z,2.30
2019-03-09T12:42:06.178Z,4.70
2019-03-09T12:44:33.177Z,3.47
2019-03-09T12:47:00.138Z,3.30
2019-03-09T12:49:27.078Z,4.13
2019-03-09T12:51:54.022Z,3.60
2019-03-09T12:54:20.998Z,4.53
2019-03-09T12:56:48.182Z,5.13
2019-03-09T12:59:15.100Z,4.37
2019-03-09T13:01:42.123Z,3.80
2019-03-09T13:04:10.422Z,2.87
2019-03-09T13:06:37.373Z,4.37
2019-03-09T13:09:04.495Z,2.33
2019-03-09T13:11:31.431Z,2.97
2019-03-09T13:13:58.490Z,3.20
2019-03-09T13:16:26.186Z,4.33
2019-03-09T13:18:53.217Z,3.30
2019-03-09T13:21:20.182Z,3.67
2019-03-09T13:23:47.112Z,3.50
2019-03-09T13:26:14.115Z,3.40
2019-03-09T13:28:41.110Z,4.97
2019-03-09T13:31:08.096Z,6.27
2019-03-09T13:33:35.121Z,3.43
2019-03-09T13:36:02.281Z,4.57
2019-03-09T13:38:29.248Z,2.97
2019-03-09T13:40:56.221Z,4.23
2019-03-09T13:43:23.213Z,6.13
2019-03-09T13:45:50.197Z,7.00
2019-03-09T13:53:16.689Z,3.60
2019-03-09T13:55:43.659Z,3.00
2019-03-09T13:58:10.764Z,4.70
2019-03-09T14:00:40.848Z,3.90
2019-03-09T14:03:04.856Z,4.03
2019-03-09T14:05:31.919Z,4.73
2019-03-09T14:07:58.978Z,3.40
2019-03-09T14:10:25.972Z,3.37
2019-03-09T14:12:52.922Z,2.70
2019-03-09T14:15:20.054Z,3.27
2019-03-09T14:17:47.007Z,3.33
2019-03-09T14:20:14.082Z,2.90
2019-03-09T14:22:41.048Z,3.50
2019-03-09T14:25:08.439Z,3.20
2019-03-09T14:27:35.426Z,4.73
2019-03-09T14:30:03.515Z,4.83
2019-03-09T14:32:30.499Z,4.83
2019-03-09T14:34:57.471Z,3.97
2019-03-09T14:37:24.451Z,4.33
2019-03-09T14:39:51.450Z,4.30
2019-03-09T14:42:18.416Z,4.90
2019-03-09T14:44:45.374Z,4.17
2019-03-09T14:47:12.326Z,3.97
2019-03-09T14:49:39.260Z,5.07
2019-03-09T14:52:06.228Z,3.73
2019-03-09T14:54:33.322Z,3.70
2019-03-09T14:57:00.306Z,3.53
2019-03-09T14:59:27.270Z,6.90
2019-03-09T15:01:54.253Z,5.10
2019-03-09T15:04:21.240Z,4.67
2019-03-09T15:06:48.197Z,4.27
2019-03-09T15:09:15.223Z,4.30
2019-03-09T15:11:42.244Z,4.87
2019-03-09T15:14:09.285Z,4.27
2019-03-09T15:16:36.234Z,5.87
2019-03-09T15:19:03.308Z,7.23
2019-03-09T15:21:30.329Z,7.30
2019-03-09T15:23:57.266Z,6.90
2019-03-09T15:26:24.216Z,3.30
2019-03-09T15:28:51.172Z,3.50
2019-03-09T15:31:18.222Z,3.40
2019-03-09T15:33:45.162Z,3.67
2019-03-09T15:36:12.097Z,3.77
2019-03-09T15:38:39.078Z,3.67
2019-03-09T15:41:06.063Z,3.83
2019-03-09T15:43:34.192Z,4.03
2019-03-09T15:46:01.160Z,6.13
2019-03-09T15:48:28.123Z,4.90
2019-03-09T15:50:55.972Z,3.03
2019-03-09T15:53:23.016Z,3.83
2019-03-09T15:55:50.126Z,4.43
2019-03-09T15:58:17.146Z,4.83
2019-03-09T16:00:44.141Z,3.90
2019-03-09T16:03:11.085Z,3.00
2019-03-09T16:05:38.006Z,3.40
2019-03-09T16:08:04.970Z,3.10
2019-03-09T16:10:31.883Z,3.17
2019-03-09T16:12:58.845Z,4.90
2019-03-09T16:15:26.303Z,3.90
2019-03-09T16:17:54.198Z,2.77
2019-03-09T16:20:21.236Z,3.50
2019-03-09T16:22:48.186Z,2.93
2019-03-09T16:25:15.118Z,3.03
2019-03-09T16:27:42.068Z,2.43
2019-03-09T16:30:11.567Z,3.00
2019-03-09T16:32:38.513Z,4.17
2019-03-09T16:35:05.446Z,4.23
2019-03-09T16:37:32.391Z,3.80
2019-03-09T16:39:59.373Z,3.87
2019-03-09T16:42:26.352Z,2.87
2019-03-09T16:44:53.371Z,2.47
2019-03-09T16:47:20.382Z,4.07
2019-03-09T16:49:47.330Z,2.07
2019-03-09T16:52:14.300Z,3.90
2019-03-09T16:54:41.217Z,2.67
2019-03-09T16:57:08.132Z,2.20
2019-03-09T16:59:35.080Z,2.40
2019-03-09T17:02:02.174Z,2.37
2019-03-09T17:04:29.251Z,1.97
2019-03-09T17:06:56.256Z,3.33
2019-03-09T17:09:23.190Z,2.47
2019-03-09T17:11:50.146Z,2.30
2019-03-09T17:14:17.126Z,3.03
2019-03-09T17:16:44.120Z,2.97
2019-03-09T17:19:11.074Z,2.77
2019-03-09T17:21:38.096Z,3.63
2019-03-09T17:24:05.051Z,4.17
2019-03-09T17:26:31.955Z,2.50
2019-03-09T17:28:58.891Z,3.70
2019-03-09T17:31:25.884Z,2.47
2019-03-09T17:33:52.831Z,2.60
2019-03-09T17:36:19.763Z,2.80
2019-03-09T17:38:46.669Z,2.60
2019-03-09T17:41:13.664Z,2.10
2019-03-09T17:43:40.603Z,2.67
2019-03-09T17:46:07.557Z,2.20
2019-03-09T17:48:34.606Z,2.00
2019-03-09T17:51:01.570Z,3.30
2019-03-09T17:53:28.658Z,2.93
2019-03-09T17:55:55.660Z,3.50
2019-03-09T17:58:22.780Z,3.00
2019-03-09T18:00:49.770Z,3.53
2019-03-09T18:03:16.744Z,3.27
2019-03-09T18:05:43.752Z,4.20
2019-03-09T18:08:10.878Z,3.73
2019-03-09T18:10:41.410Z,3.13
2019-03-09T18:13:08.407Z,3.77
2019-03-09T18:15:35.405Z,3.10
2019-03-09T18:18:02.436Z,3.07
2019-03-09T18:25:24.178Z,3.67
2019-03-09T18:27:51.171Z,7.70
2019-03-09T18:30:18.207Z,4.07
2019-03-09T18:32:45.216Z,3.17
2019-03-09T18:35:12.263Z,3.17
2019-03-09T18:37:39.248Z,3.73
2019-03-09T18:40:06.624Z,3.50
2019-03-09T18:42:33.670Z,3.13
2019-03-09T18:45:00.680Z,3.43
2019-03-09T18:47:27.662Z,3.37
2019-03-09T18:49:54.648Z,3.53
2019-03-09T18:52:21.598Z,4.47
2019-03-09T18:54:48.612Z,4.13
2019-03-09T18:57:15.646Z,5.00
2019-03-09T18:59:42.616Z,5.63
2019-03-09T19:02:09.671Z,5.23
2019-03-09T19:04:36.755Z,4.43
2019-03-09T19:07:03.891Z,4.60
2019-03-09T19:09:30.870Z,4.23
2019-03-09T19:11:57.830Z,4.20
2019-03-09T19:14:24.862Z,6.33
2019-03-09T19:16:51.937Z,4.77
2019-03-09T19:19:18.950Z,8.23
2019-03-09T19:21:46.104Z,7.53
2019-03-09T19:24:13.510Z,7.10
2019-03-09T19:26:40.470Z,6.47
2019-03-09T19:29:07.580Z,5.90
2019-03-09T19:31:34.781Z,5.40
2019-03-09T19:34:02.285Z,4.00
2019-03-09T19:36:29.426Z,4.27
2019-03-09T19:38:57.070Z,4.63
2019-03-09T19:41:24.141Z,6.87
2019-03-09T19:43:51.423Z,4.97
2019-03-09T19:46:18.587Z,3.80
2019-03-09T19:48:45.713Z,4.20
2019-03-09T19:51:12.739Z,4.43
2019-03-09T19:53:40.115Z,3.90
2019-03-09T19:56:07.550Z,7.73
2019-03-09T19:58:35.117Z,4.20
2019-03-09T20:01:02.595Z,4.70
2019-03-09T20:03:29.620Z,5.67
2019-03-09T20:05:56.570Z,4.53
2019-03-09T20:08:23.833Z,6.20
2019-03-09T20:10:51.979Z,6.20
2019-03-09T20:13:18.940Z,5.50
2019-03-09T20:15:45.962Z,4.73
2019-03-09T20:18:13.264Z,4.60
2019-03-09T20:20:40.513Z,4.93
2019-03-09T20:23:07.598Z,6.97
2019-03-09T20:25:40.696Z,5.17
2019-03-09T20:28:07.672Z,5.30
2019-03-09T20:30:35.164Z,3.73
2019-03-09T20:33:03.270Z,3.60
2019-03-09T20:35:30.610Z,3.60
2019-03-09T20:37:58.573Z,4.00
2019-03-09T20:40:26.032Z,3.23
2019-03-09T20:42:53.293Z,4.67
2019-03-09T20:45:21.393Z,2.80
2019-03-09T20:47:48.379Z,2.97
2019-03-09T20:50:15.381Z,3.23
2019-03-09T20:52:42.413Z,3.10
2019-03-09T20:55:09.374Z,4.40
2019-03-09T20:57:36.335Z,3.13
2019-03-09T21:00:04.527Z,2.10
2019-03-09T21:02:31.502Z,2.53
2019-03-09T21:04:58.459Z,2.20
2019-03-09T21:07:25.420Z,2.20
2019-03-09T21:09:52.380Z,1.83
2019-03-09T21:12:19.374Z,2.20
2019-03-09T21:14:46.324Z,2.20
2019-03-09T21:17:13.380Z,2.50
2019-03-09T21:19:40.338Z,2.00
2019-03-09T21:22:07.363Z,3.93
2019-03-09T21:24:34.345Z,3.17
2019-03-09T21:27:01.387Z,3.33
2019-03-09T21:29:28.379Z,3.13
2019-03-09T21:31:55.383Z,2.53
2019-03-09T21:34:22.408Z,2.67
2019-03-09T21:36:49.394Z,3.20
2019-03-09T21:39:16.378Z,5.40
2019-03-09T21:41:43.340Z,2.53
2019-03-09T21:44:10.331Z,2.83
2019-03-09T21:46:37.318Z,2.40
2019-03-09T21:49:04.324Z,2.90
2019-03-09T21:51:31.397Z,2.63
2019-03-09T21:53:58.389Z,3.53
2019-03-09T21:56:25.445Z,2.40
2019-03-09T21:58:52.449Z,2.63
2019-03-09T22:01:19.429Z,2.50
2019-03-09T22:03:46.387Z,4.17
2019-03-09T22:06:13.369Z,2.60
2019-03-09T22:08:40.335Z,2.03
2019-03-09T22:11:07.354Z,2.07
2019-03-09T22:13:34.343Z,2.67
2019-03-09T22:16:01.387Z,3.17
2019-03-09T22:18:28.332Z,2.43
2019-03-09T22:20:55.291Z,3.03
2019-03-09T22:23:22.318Z,5.03
2019-03-09T22:25:49.300Z,2.47
2019-03-09T22:28:17.904Z,6.50
2019-03-09T22:30:44.946Z,4.27
2019-03-09T22:33:11.944Z,3.07
2019-03-09T22:35:38.989Z,2.50
2019-03-09T22:38:05.988Z,2.53
2019-03-09T22:40:33.005Z,2.97
2019-03-09T22:43:00.021Z,2.83
2019-03-09T22:45:26.972Z,3.10
2019-03-09T22:47:54.018Z,3.63
2019-03-09T22:50:20.996Z,2.43
2019-03-09T22:52:48.043Z,2.27
2019-03-09T22:55:15.037Z,2.53
2019-03-09T22:57:42.065Z,2.60
2019-03-09T23:00:11.534Z,2.50
2019-03-09T23:02:38.566Z,1.90
2019-03-09T23:05:05.614Z,2.70
2019-03-09T23:07:32.658Z,2.20
2019-03-09T23:10:00.133Z,2.03
2019-03-09T23:12:26.692Z,2.47
2019-03-09T23:14:53.703Z,2.17
2019-03-09T23:17:20.734Z,2.47
2019-03-09T23:19:47.706Z,2.30
2019-03-09T23:22:14.737Z,2.50
2019-03-09T23:24:41.753Z,1.87
2019-03-09T23:27:08.734Z,2.13
2019-03-09T23:29:35.736Z,2.27
2019-03-09T23:32:02.803Z,2.83
2019-03-09T23:34:29.813Z,2.67
2019-03-09T23:36:56.799Z,3.07
2019-03-09T23:39:23.819Z,2.93
2019-03-09T23:41:50.817Z,2.13
2019-03-09T23:44:17.824Z,3.00
2019-03-09T23:46:44.815Z,3.17
2019-03-09T23:49:11.886Z,2.87
2019-03-09T23:51:38.894Z,2.43
2019-03-09T23:54:05.874Z,1.90
2019-03-09T23:56:32.955Z,2.47
2019-03-09T23:58:59.916Z,3.63
